Terminal Aerodrome Forecast
Issued by NWS Jackson, MS

Home | Current Version | Previous Version | Text Only | Print | Product List | Glossary On
Versions: 1 2 3 4 5 6 7 8 9 10 11 12 13 14 15 16 17 18 19 20 21 22 23 24 25 26 27
000
FTUS44 KJAN 060520
TAFJAN
TAF
KJAN 060520Z 0606/0706 20006KT P6SM SKC
     FM061000 20005KT P6SM OVC015
     FM061500 20006KT P6SM SCT030
     FM062000 22007KT P6SM VCTS SCT050CB
     FM070000 19004KT P6SM FEW250=

USA.gov is the U.S. government's official web portal to all federal, state and local government web resources and services.